sensor_id;sensor_type;location;lat;lon;timestamp;temperature;humidity
9772;DHT22;4925;52.588;13.370;2024-01-27T00:02:04;6.10;99.90
9772;DHT22;4925;52.588;13.370;2024-01-27T00:04:29;6.10;99.90
9772;DHT22;4925;52.588;13.370;2024-01-27T00:06:56;6.20;99.90
9772;DHT22;4925;52.588;13.370;2024-01-27T00:09:22;6.10;99.90
9772;DHT22;4925;52.588;13.370;2024-01-27T00:11:48;6.10;99.90
9772;DHT22;4925;52.588;13.370;2024-01-27T00:14:13;6.00;99.90
9772;DHT22;4925;52.588;13.370;2024-01-27T00:16:39;6.00;99.90
9772;DHT22;4925;52.588;13.370;2024-01-27T00:19:05;5.90;99.90
9772;DHT22;4925;52.588;13.370;2024-01-27T00:21:30;5.90;99.90
9772;DHT22;4925;52.588;13.370;2024-01-27T00:23:56;5.90;99.90
9772;DHT22;4925;52.588;13.370;2024-01-27T00:26:26;5.90;99.90
9772;DHT22;4925;52.588;13.370;2024-01-27T00:28:53;5.90;99.90
9772;DHT22;4925;52.588;13.370;2024-01-27T00:31:19;5.90;99.90
9772;DHT22;4925;52.588;13.370;2024-01-27T00:33:46;5.80;99.90
9772;DHT22;4925;52.588;13.370;2024-01-27T00:36:11;5.90;99.90
9772;DHT22;4925;52.588;13.370;2024-01-27T00:38:37;5.90;99.90
9772;DHT22;4925;52.588;13.370;2024-01-27T00:41:05;5.90;99.90
9772;DHT22;4925;52.588;13.370;2024-01-27T00:43:32;5.90;99.90
9772;DHT22;4925;52.588;13.370;2024-01-27T00:45:58;5.90;99.90
9772;DHT22;4925;52.588;13.370;2024-01-27T00:48:24;5.90;99.90
9772;DHT22;4925;52.588;13.370;2024-01-27T00:50:49;6.00;99.90
9772;DHT22;4925;52.588;13.370;2024-01-27T00:53:15;5.90;99.90
9772;DHT22;4925;52.588;13.370;2024-01-27T00:55:40;5.80;99.90
9772;DHT22;4925;52.588;13.370;2024-01-27T00:58:07;5.80;99.90
9772;DHT22;4925;52.588;13.370;2024-01-27T01:00:34;5.80;99.90
9772;DHT22;4925;52.588;13.370;2024-01-27T01:03:00;5.80;99.90
9772;DHT22;4925;52.588;13.370;2024-01-27T01:05:25;5.80;99.90
9772;DHT22;4925;52.588;13.370;2024-01-27T01:07:51;5.70;99.90
9772;DHT22;4925;52.588;13.370;2024-01-27T01:10:17;5.80;99.90
9772;DHT22;4925;52.588;13.370;2024-01-27T01:12:42;5.80;99.90
9772;DHT22;4925;52.588;13.370;2024-01-27T01:15:08;5.90;99.90
9772;DHT22;4925;52.588;13.370;2024-01-27T01:17:36;5.90;99.90
9772;DHT22;4925;52.588;13.370;2024-01-27T01:20:01;5.90;99.90
9772;DHT22;4925;52.588;13.370;2024-01-27T01:22:27;5.80;99.90
9772;DHT22;4925;52.588;13.370;2024-01-27T01:24:54;5.80;99.90
9772;DHT22;4925;52.588;13.370;2024-01-27T01:27:20;5.90;99.90
9772;DHT22;4925;52.588;13.370;2024-01-27T01:29:46;5.80;99.90
9772;DHT22;4925;52.588;13.370;2024-01-27T01:32:12;5.80;99.90
9772;DHT22;4925;52.588;13.370;2024-01-27T01:34:39;5.70;99.90
9772;DHT22;4925;52.588;13.370;2024-01-27T01:37:04;5.80;99.90
9772;DHT22;4925;52.588;13.370;2024-01-27T01:39:30;5.80;99.90
9772;DHT22;4925;52.588;13.370;2024-01-27T01:41:55;5.80;99.90
9772;DHT22;4925;52.588;13.370;2024-01-27T01:44:21;5.80;99.90
9772;DHT22;4925;52.588;13.370;2024-01-27T01:46:47;5.70;99.90
9772;DHT22;4925;52.588;13.370;2024-01-27T01:49:13;5.70;99.90
9772;DHT22;4925;52.588;13.370;2024-01-27T01:51:41;5.70;99.90
9772;DHT22;4925;52.588;13.370;2024-01-27T01:54:06;5.70;99.90
9772;DHT22;4925;52.588;13.370;2024-01-27T01:56:33;5.70;99.90
9772;DHT22;4925;52.588;13.370;2024-01-27T01:59:00;5.60;99.90
9772;DHT22;4925;52.588;13.370;2024-01-27T02:01:26;5.60;99.90
9772;DHT22;4925;52.588;13.370;2024-01-27T02:03:55;5.60;99.90
9772;DHT22;4925;52.588;13.370;2024-01-27T02:06:21;5.60;99.90
9772;DHT22;4925;52.588;13.370;2024-01-27T02:08:47;5.70;99.90
9772;DHT22;4925;52.588;13.370;2024-01-27T02:11:14;5.70;99.90
9772;DHT22;4925;52.588;13.370;2024-01-27T02:13:41;5.70;99.90
9772;DHT22;4925;52.588;13.370;2024-01-27T02:16:08;5.80;99.90
9772;DHT22;4925;52.588;13.370;2024-01-27T02:18:33;5.70;99.90
9772;DHT22;4925;52.588;13.370;2024-01-27T02:20:59;5.70;99.90
9772;DHT22;4925;52.588;13.370;2024-01-27T02:23:25;5.70;99.90
9772;DHT22;4925;52.588;13.370;2024-01-27T02:25:52;5.70;99.90
9772;DHT22;4925;52.588;13.370;2024-01-27T02:28:18;5.80;99.90
9772;DHT22;4925;52.588;13.370;2024-01-27T02:30:43;5.80;99.90
9772;DHT22;4925;52.588;13.370;2024-01-27T02:33:11;5.80;99.90
9772;DHT22;4925;52.588;13.370;2024-01-27T02:35:37;5.80;99.90
9772;DHT22;4925;52.588;13.370;2024-01-27T02:38:03;5.80;99.90
9772;DHT22;4925;52.588;13.370;2024-01-27T02:40:29;5.70;99.90
9772;DHT22;4925;52.588;13.370;2024-01-27T02:42:56;5.70;99.90
9772;DHT22;4925;52.588;13.370;2024-01-27T02:45:24;5.70;99.90
9772;DHT22;4925;52.588;13.370;2024-01-27T02:47:49;5.60;99.90
9772;DHT22;4925;52.588;13.370;2024-01-27T02:50:15;5.60;99.90
9772;DHT22;4925;52.588;13.370;2024-01-27T02:52:41;5.60;99.90
9772;DHT22;4925;52.588;13.370;2024-01-27T02:55:09;5.50;99.90
9772;DHT22;4925;52.588;13.370;2024-01-27T02:57:35;5.50;99.90
9772;DHT22;4925;52.588;13.370;2024-01-27T03:00:01;5.40;99.90
9772;DHT22;4925;52.588;13.370;2024-01-27T03:02:27;5.40;99.90
9772;DHT22;4925;52.588;13.370;2024-01-27T03:04:52;5.50;99.90
9772;DHT22;4925;52.588;13.370;2024-01-27T03:07:18;5.40;99.90
9772;DHT22;4925;52.588;13.370;2024-01-27T03:09:43;5.50;99.90
9772;DHT22;4925;52.588;13.370;2024-01-27T03:12:09;5.50;99.90
9772;DHT22;4925;52.588;13.370;2024-01-27T03:14:35;5.40;99.90
9772;DHT22;4925;52.588;13.370;2024-01-27T03:17:01;5.40;99.90
9772;DHT22;4925;52.588;13.370;2024-01-27T03:19:27;5.40;99.90
9772;DHT22;4925;52.588;13.370;2024-01-27T03:21:54;5.40;99.90
9772;DHT22;4925;52.588;13.370;2024-01-27T03:24:19;5.40;99.90
9772;DHT22;4925;52.588;13.370;2024-01-27T03:26:47;5.40;99.90
9772;DHT22;4925;52.588;13.370;2024-01-27T03:29:15;5.30;99.90
9772;DHT22;4925;52.588;13.370;2024-01-27T03:31:40;5.30;99.90
9772;DHT22;4925;52.588;13.370;2024-01-27T03:34:06;5.20;99.90
9772;DHT22;4925;52.588;13.370;2024-01-27T03:36:34;5.20;99.90
9772;DHT22;4925;52.588;13.370;2024-01-27T03:39:00;5.10;99.90
9772;DHT22;4925;52.588;13.370;2024-01-27T03:41:26;5.10;99.90
9772;DHT22;4925;52.588;13.370;2024-01-27T03:43:52;5.10;99.90
9772;DHT22;4925;52.588;13.370;2024-01-27T03:46:17;5.00;99.90
9772;DHT22;4925;52.588;13.370;2024-01-27T03:48:43;5.00;99.90
9772;DHT22;4925;52.588;13.370;2024-01-27T03:51:09;4.90;99.90
9772;DHT22;4925;52.588;13.370;2024-01-27T03:53:34;4.90;99.90
9772;DHT22;4925;52.588;13.370;2024-01-27T03:56:02;4.90;99.90
9772;DHT22;4925;52.588;13.370;2024-01-27T03:58:30;4.80;99.90
9772;DHT22;4925;52.588;13.370;2024-01-27T04:00:57;4.90;99.90
9772;DHT22;4925;52.588;13.370;2024-01-27T04:03:23;4.80;99.90
9772;DHT22;4925;52.588;13.370;2024-01-27T04:05:48;4.80;99.90
9772;DHT22;4925;52.588;13.370;2024-01-27T04:08:14;4.80;99.90
9772;DHT22;4925;52.588;13.370;2024-01-27T04:10:40;4.70;99.90
9772;DHT22;4925;52.588;13.370;2024-01-27T04:13:05;4.80;99.90
9772;DHT22;4925;52.588;13.370;2024-01-27T04:15:36;4.80;99.90
9772;DHT22;4925;52.588;13.370;2024-01-27T04:18:08;4.80;99.90
9772;DHT22;4925;52.588;13.370;2024-01-27T04:20:37;4.80;99.90
9772;DHT22;4925;52.588;13.370;2024-01-27T04:23:04;4.80;99.90
9772;DHT22;4925;52.588;13.370;2024-01-27T04:25:30;4.80;99.90
9772;DHT22;4925;52.588;13.370;2024-01-27T04:27:56;4.70;99.90
9772;DHT22;4925;52.588;13.370;2024-01-27T04:30:21;4.60;99.90
9772;DHT22;4925;52.588;13.370;2024-01-27T04:32:47;4.70;99.90
9772;DHT22;4925;52.588;13.370;2024-01-27T04:35:18;4.70;99.90
9772;DHT22;4925;52.588;13.370;2024-01-27T04:37:44;4.70;99.90
9772;DHT22;4925;52.588;13.370;2024-01-27T04:40:13;4.80;99.90
9772;DHT22;4925;52.588;13.370;2024-01-27T04:42:38;4.80;99.90
9772;DHT22;4925;52.588;13.370;2024-01-27T04:45:07;4.80;99.90
9772;DHT22;4925;52.588;13.370;2024-01-27T04:47:33;4.80;99.90
9772;DHT22;4925;52.588;13.370;2024-01-27T04:50:00;4.80;99.90
9772;DHT22;4925;52.588;13.370;2024-01-27T04:52:27;4.90;99.90
9772;DHT22;4925;52.588;13.370;2024-01-27T04:54:52;4.90;99.90
9772;DHT22;4925;52.588;13.370;2024-01-27T04:57:18;4.90;99.90
9772;DHT22;4925;52.588;13.370;2024-01-27T04:59:45;5.10;99.90
9772;DHT22;4925;52.588;13.370;2024-01-27T05:02:11;5.10;99.90
9772;DHT22;4925;52.588;13.370;2024-01-27T05:04:39;5.00;99.90
9772;DHT22;4925;52.588;13.370;2024-01-27T05:07:04;4.90;99.90
9772;DHT22;4925;52.588;13.370;2024-01-27T05:09:30;4.90;99.90
9772;DHT22;4925;52.588;13.370;2024-01-27T05:11:56;4.90;99.90
9772;DHT22;4925;52.588;13.370;2024-01-27T05:14:22;4.90;99.90
9772;DHT22;4925;52.588;13.370;2024-01-27T05:16:48;5.00;99.90
9772;DHT22;4925;52.588;13.370;2024-01-27T05:19:15;4.90;99.90
9772;DHT22;4925;52.588;13.370;2024-01-27T05:21:42;4.90;99.90
9772;DHT22;4925;52.588;13.370;2024-01-27T05:24:09;4.80;99.90
9772;DHT22;4925;52.588;13.370;2024-01-27T05:26:38;4.80;99.90
9772;DHT22;4925;52.588;13.370;2024-01-27T05:29:04;4.80;99.90
9772;DHT22;4925;52.588;13.370;2024-01-27T05:31:29;4.80;99.90
9772;DHT22;4925;52.588;13.370;2024-01-27T05:33:55;4.80;99.90
9772;DHT22;4925;52.588;13.370;2024-01-27T05:36:21;4.80;99.90
9772;DHT22;4925;52.588;13.370;2024-01-27T05:38:46;4.80;99.90
9772;DHT22;4925;52.588;13.370;2024-01-27T05:41:12;4.80;99.90
9772;DHT22;4925;52.588;13.370;2024-01-27T05:43:37;4.90;99.90
9772;DHT22;4925;52.588;13.370;2024-01-27T05:46:03;4.90;99.90
9772;DHT22;4925;52.588;13.370;2024-01-27T05:48:29;4.90;99.90
9772;DHT22;4925;52.588;13.370;2024-01-27T05:50:59;4.90;99.90
9772;DHT22;4925;52.588;13.370;2024-01-27T05:53:25;4.90;99.90
9772;DHT22;4925;52.588;13.370;2024-01-27T05:55:51;4.90;99.90
9772;DHT22;4925;52.588;13.370;2024-01-27T05:58:17;5.00;99.90
9772;DHT22;4925;52.588;13.370;2024-01-27T06:00:46;5.00;99.90
9772;DHT22;4925;52.588;13.370;2024-01-27T06:03:13;5.10;99.90
9772;DHT22;4925;52.588;13.370;2024-01-27T06:05:42;5.10;99.90
9772;DHT22;4925;52.588;13.370;2024-01-27T06:08:10;5.20;99.90
9772;DHT22;4925;52.588;13.370;2024-01-27T06:10:37;5.20;99.90
9772;DHT22;4925;52.588;13.370;2024-01-27T06:13:04;5.10;99.90
9772;DHT22;4925;52.588;13.370;2024-01-27T06:15:29;5.20;99.90
9772;DHT22;4925;52.588;13.370;2024-01-27T06:17:55;5.20;99.90
9772;DHT22;4925;52.588;13.370;2024-01-27T06:20:21;5.30;99.90
9772;DHT22;4925;52.588;13.370;2024-01-27T06:22:49;5.30;99.90
9772;DHT22;4925;52.588;13.370;2024-01-27T06:25:18;5.40;99.90
9772;DHT22;4925;52.588;13.370;2024-01-27T06:27:43;5.40;99.90
9772;DHT22;4925;52.588;13.370;2024-01-27T06:30:10;5.40;99.90
9772;DHT22;4925;52.588;13.370;2024-01-27T06:32:36;5.50;99.90
9772;DHT22;4925;52.588;13.370;2024-01-27T06:35:02;5.50;99.90
9772;DHT22;4925;52.588;13.370;2024-01-27T06:37:28;5.40;99.90
9772;DHT22;4925;52.588;13.370;2024-01-27T06:39:54;5.40;99.90
9772;DHT22;4925;52.588;13.370;2024-01-27T06:42:20;5.40;99.90
9772;DHT22;4925;52.588;13.370;2024-01-27T06:44:46;5.50;99.90
9772;DHT22;4925;52.588;13.370;2024-01-27T06:47:11;5.50;99.90
9772;DHT22;4925;52.588;13.370;2024-01-27T06:49:37;5.40;99.90
9772;DHT22;4925;52.588;13.370;2024-01-27T06:52:05;5.40;99.90
9772;DHT22;4925;52.588;13.370;2024-01-27T06:54:30;5.50;99.90
9772;DHT22;4925;52.588;13.370;2024-01-27T06:56:56;5.40;99.90
9772;DHT22;4925;52.588;13.370;2024-01-27T06:59:22;5.40;99.90
9772;DHT22;4925;52.588;13.370;2024-01-27T07:01:49;5.40;99.90
9772;DHT22;4925;52.588;13.370;2024-01-27T07:04:15;5.40;99.90
9772;DHT22;4925;52.588;13.370;2024-01-27T07:06:41;5.50;99.90
9772;DHT22;4925;52.588;13.370;2024-01-27T07:09:07;5.50;99.90
9772;DHT22;4925;52.588;13.370;2024-01-27T07:11:38;5.50;99.90
9772;DHT22;4925;52.588;13.370;2024-01-27T07:14:04;5.50;99.90
9772;DHT22;4925;52.588;13.370;2024-01-27T07:16:30;5.60;99.90
9772;DHT22;4925;52.588;13.370;2024-01-27T07:18:55;5.60;99.90
9772;DHT22;4925;52.588;13.370;2024-01-27T07:21:22;5.70;99.90
9772;DHT22;4925;52.588;13.370;2024-01-27T07:23:48;5.70;99.90
9772;DHT22;4925;52.588;13.370;2024-01-27T07:26:13;5.70;99.90
9772;DHT22;4925;52.588;13.370;2024-01-27T07:28:41;5.60;99.90
9772;DHT22;4925;52.588;13.370;2024-01-27T07:31:07;5.60;99.90
9772;DHT22;4925;52.588;13.370;2024-01-27T07:33:38;5.60;99.90
9772;DHT22;4925;52.588;13.370;2024-01-27T07:36:04;5.60;99.90
9772;DHT22;4925;52.588;13.370;2024-01-27T07:38:31;5.60;99.90
9772;DHT22;4925;52.588;13.370;2024-01-27T07:41:00;5.70;99.90
9772;DHT22;4925;52.588;13.370;2024-01-27T07:43:26;5.70;99.90
9772;DHT22;4925;52.588;13.370;2024-01-27T07:45:52;5.80;99.90
9772;DHT22;4925;52.588;13.370;2024-01-27T07:48:19;5.80;99.90
9772;DHT22;4925;52.588;13.370;2024-01-27T07:50:45;5.80;99.90
9772;DHT22;4925;52.588;13.370;2024-01-27T07:53:16;5.80;99.90
9772;DHT22;4925;52.588;13.370;2024-01-27T07:55:43;5.80;99.90
9772;DHT22;4925;52.588;13.370;2024-01-27T07:58:09;5.80;99.90
9772;DHT22;4925;52.588;13.370;2024-01-27T08:00:35;5.80;99.90
9772;DHT22;4925;52.588;13.370;2024-01-27T08:03:00;5.80;99.90
9772;DHT22;4925;52.588;13.370;2024-01-27T08:05:26;5.90;99.90
9772;DHT22;4925;52.588;13.370;2024-01-27T08:07:52;5.90;99.90
9772;DHT22;4925;52.588;13.370;2024-01-27T08:10:23;5.90;99.90
9772;DHT22;4925;52.588;13.370;2024-01-27T08:12:50;5.90;99.90
9772;DHT22;4925;52.588;13.370;2024-01-27T08:15:16;6.10;99.90
9772;DHT22;4925;52.588;13.370;2024-01-27T08:17:43;6.10;99.90
9772;DHT22;4925;52.588;13.370;2024-01-27T08:20:09;6.20;99.90
9772;DHT22;4925;52.588;13.370;2024-01-27T08:22:34;6.30;99.90
9772;DHT22;4925;52.588;13.370;2024-01-27T08:25:00;6.20;99.90
9772;DHT22;4925;52.588;13.370;2024-01-27T08:27:26;6.30;99.90
9772;DHT22;4925;52.588;13.370;2024-01-27T08:29:54;6.30;99.90
9772;DHT22;4925;52.588;13.370;2024-01-27T08:32:20;6.30;99.90
9772;DHT22;4925;52.588;13.370;2024-01-27T08:34:48;6.30;99.90
9772;DHT22;4925;52.588;13.370;2024-01-27T08:37:18;6.20;99.90
9772;DHT22;4925;52.588;13.370;2024-01-27T08:39:44;6.30;99.90
9772;DHT22;4925;52.588;13.370;2024-01-27T08:42:11;6.30;99.90
9772;DHT22;4925;52.588;13.370;2024-01-27T08:44:43;6.40;99.90
9772;DHT22;4925;52.588;13.370;2024-01-27T08:47:09;6.40;99.90
9772;DHT22;4925;52.588;13.370;2024-01-27T08:49:36;6.50;99.90
9772;DHT22;4925;52.588;13.370;2024-01-27T08:52:03;6.40;99.90
9772;DHT22;4925;52.588;13.370;2024-01-27T08:54:28;6.50;99.90
9772;DHT22;4925;52.588;13.370;2024-01-27T08:56:57;6.60;99.90
9772;DHT22;4925;52.588;13.370;2024-01-27T08:59:23;6.60;99.90
9772;DHT22;4925;52.588;13.370;2024-01-27T09:01:49;6.60;99.90
9772;DHT22;4925;52.588;13.370;2024-01-27T09:04:14;6.70;99.90
9772;DHT22;4925;52.588;13.370;2024-01-27T09:06:40;6.80;99.90
9772;DHT22;4925;52.588;13.370;2024-01-27T09:09:06;6.80;99.90
9772;DHT22;4925;52.588;13.370;2024-01-27T09:11:31;6.90;99.90
9772;DHT22;4925;52.588;13.370;2024-01-27T09:13:59;6.80;99.90
9772;DHT22;4925;52.588;13.370;2024-01-27T09:16:25;6.80;99.90
9772;DHT22;4925;52.588;13.370;2024-01-27T09:18:51;6.90;99.90
9772;DHT22;4925;52.588;13.370;2024-01-27T09:21:18;6.90;99.90
9772;DHT22;4925;52.588;13.370;2024-01-27T09:23:46;6.90;99.90
9772;DHT22;4925;52.588;13.370;2024-01-27T09:26:13;6.80;99.90
9772;DHT22;4925;52.588;13.370;2024-01-27T09:28:39;7.00;99.90
9772;DHT22;4925;52.588;13.370;2024-01-27T09:31:10;7.10;99.90
9772;DHT22;4925;52.588;13.370;2024-01-27T09:33:36;7.00;99.90
9772;DHT22;4925;52.588;13.370;2024-01-27T09:36:02;6.90;99.90
9772;DHT22;4925;52.588;13.370;2024-01-27T09:38:29;6.90;99.90
9772;DHT22;4925;52.588;13.370;2024-01-27T09:40:55;7.10;99.90
9772;DHT22;4925;52.588;13.370;2024-01-27T09:43:21;7.20;99.90
9772;DHT22;4925;52.588;13.370;2024-01-27T09:45:51;7.00;99.90
9772;DHT22;4925;52.588;13.370;2024-01-27T09:48:16;7.10;99.90
9772;DHT22;4925;52.588;13.370;2024-01-27T09:50:45;7.20;99.90
9772;DHT22;4925;52.588;13.370;2024-01-27T09:53:12;7.20;99.90
9772;DHT22;4925;52.588;13.370;2024-01-27T09:55:38;7.30;99.90
9772;DHT22;4925;52.588;13.370;2024-01-27T09:58:04;7.40;99.90
9772;DHT22;4925;52.588;13.370;2024-01-27T10:00:30;7.30;99.90
9772;DHT22;4925;52.588;13.370;2024-01-27T10:02:57;7.30;99.90
9772;DHT22;4925;52.588;13.370;2024-01-27T10:05:25;7.50;99.90
9772;DHT22;4925;52.588;13.370;2024-01-27T10:07:52;7.30;99.90
9772;DHT22;4925;52.588;13.370;2024-01-27T10:10:18;7.40;99.90
9772;DHT22;4925;52.588;13.370;2024-01-27T10:12:47;7.50;99.90
9772;DHT22;4925;52.588;13.370;2024-01-27T10:15:19;7.60;99.90
9772;DHT22;4925;52.588;13.370;2024-01-27T10:17:46;7.60;99.90
9772;DHT22;4925;52.588;13.370;2024-01-27T10:20:13;7.70;99.90
9772;DHT22;4925;52.588;13.370;2024-01-27T10:22:42;7.70;99.90
9772;DHT22;4925;52.588;13.370;2024-01-27T10:25:09;7.70;99.90
9772;DHT22;4925;52.588;13.370;2024-01-27T10:27:40;7.90;99.90
9772;DHT22;4925;52.588;13.370;2024-01-27T10:30:16;7.80;99.90
9772;DHT22;4925;52.588;13.370;2024-01-27T10:32:42;7.90;99.90
9772;DHT22;4925;52.588;13.370;2024-01-27T10:35:08;7.80;99.90
9772;DHT22;4925;52.588;13.370;2024-01-27T10:37:34;7.80;99.90
9772;DHT22;4925;52.588;13.370;2024-01-27T10:40:08;7.90;99.90
9772;DHT22;4925;52.588;13.370;2024-01-27T10:42:38;7.70;99.90
9772;DHT22;4925;52.588;13.370;2024-01-27T10:45:04;7.60;99.90
9772;DHT22;4925;52.588;13.370;2024-01-27T10:47:31;7.40;99.90
9772;DHT22;4925;52.588;13.370;2024-01-27T10:49:58;7.30;99.90
9772;DHT22;4925;52.588;13.370;2024-01-27T10:52:28;7.40;99.90
9772;DHT22;4925;52.588;13.370;2024-01-27T10:55:02;7.40;99.90
9772;DHT22;4925;52.588;13.370;2024-01-27T10:57:33;7.40;99.90
9772;DHT22;4925;52.588;13.370;2024-01-27T11:00:00;7.40;99.90
9772;DHT22;4925;52.588;13.370;2024-01-27T11:02:28;7.40;99.90
9772;DHT22;4925;52.588;13.370;2024-01-27T11:05:02;7.50;99.90
9772;DHT22;4925;52.588;13.370;2024-01-27T11:07:33;7.30;99.90
9772;DHT22;4925;52.588;13.370;2024-01-27T11:10:00;7.50;99.90
9772;DHT22;4925;52.588;13.370;2024-01-27T11:12:31;7.50;99.90
9772;DHT22;4925;52.588;13.370;2024-01-27T11:14:57;7.50;99.90
9772;DHT22;4925;52.588;13.370;2024-01-27T11:17:26;7.50;99.90
9772;DHT22;4925;52.588;13.370;2024-01-27T11:19:55;7.60;99.90
9772;DHT22;4925;52.588;13.370;2024-01-27T11:22:28;7.60;99.90
9772;DHT22;4925;52.588;13.370;2024-01-27T11:27:37;7.60;99.90
9772;DHT22;4925;52.588;13.370;2024-01-27T11:30:03;7.60;99.90
9772;DHT22;4925;52.588;13.370;2024-01-27T11:32:32;7.50;99.90
9772;DHT22;4925;52.588;13.370;2024-01-27T11:35:00;7.40;99.90
9772;DHT22;4925;52.588;13.370;2024-01-27T11:37:31;7.60;99.90
9772;DHT22;4925;52.588;13.370;2024-01-27T11:40:12;7.60;99.90
9772;DHT22;4925;52.588;13.370;2024-01-27T11:42:38;7.70;99.90
9772;DHT22;4925;52.588;13.370;2024-01-27T11:45:05;7.80;99.90
9772;DHT22;4925;52.588;13.370;2024-01-27T11:47:32;7.80;99.90
9772;DHT22;4925;52.588;13.370;2024-01-27T11:49:58;7.80;99.90
9772;DHT22;4925;52.588;13.370;2024-01-27T11:52:24;7.60;99.90
9772;DHT22;4925;52.588;13.370;2024-01-27T11:54:56;7.70;99.90
9772;DHT22;4925;52.588;13.370;2024-01-27T11:57:23;7.70;99.90
9772;DHT22;4925;52.588;13.370;2024-01-27T11:59:49;7.80;99.90
9772;DHT22;4925;52.588;13.370;2024-01-27T12:02:16;7.60;99.90
9772;DHT22;4925;52.588;13.370;2024-01-27T12:04:42;7.60;99.90
9772;DHT22;4925;52.588;13.370;2024-01-27T12:07:09;7.60;99.90
9772;DHT22;4925;52.588;13.370;2024-01-27T12:09:38;7.60;99.90
9772;DHT22;4925;52.588;13.370;2024-01-27T12:12:04;7.70;99.90
9772;DHT22;4925;52.588;13.370;2024-01-27T12:14:49;7.70;99.90
9772;DHT22;4925;52.588;13.370;2024-01-27T12:17:16;7.70;99.90
9772;DHT22;4925;52.588;13.370;2024-01-27T12:19:48;7.70;99.90
9772;DHT22;4925;52.588;13.370;2024-01-27T12:22:27;7.60;99.90
9772;DHT22;4925;52.588;13.370;2024-01-27T12:24:54;7.70;99.90
9772;DHT22;4925;52.588;13.370;2024-01-27T12:27:20;7.80;99.90
9772;DHT22;4925;52.588;13.370;2024-01-27T12:29:49;7.70;99.90
9772;DHT22;4925;52.588;13.370;2024-01-27T12:32:16;7.80;99.90
9772;DHT22;4925;52.588;13.370;2024-01-27T12:34:42;7.80;99.90
9772;DHT22;4925;52.588;13.370;2024-01-27T12:37:12;7.80;99.90
9772;DHT22;4925;52.588;13.370;2024-01-27T12:39:44;7.70;99.90
9772;DHT22;4925;52.588;13.370;2024-01-27T12:42:11;7.70;99.90
9772;DHT22;4925;52.588;13.370;2024-01-27T12:44:38;7.50;99.90
9772;DHT22;4925;52.588;13.370;2024-01-27T12:47:06;7.50;99.90
9772;DHT22;4925;52.588;13.370;2024-01-27T12:49:31;7.60;99.90
9772;DHT22;4925;52.588;13.370;2024-01-27T12:51:57;7.70;99.90
9772;DHT22;4925;52.588;13.370;2024-01-27T12:54:23;7.70;99.90
9772;DHT22;4925;52.588;13.370;2024-01-27T12:56:56;7.70;99.90
9772;DHT22;4925;52.588;13.370;2024-01-27T12:59:21;7.80;99.90
9772;DHT22;4925;52.588;13.370;2024-01-27T13:01:49;8.00;99.90
9772;DHT22;4925;52.588;13.370;2024-01-27T13:04:14;8.00;99.90
9772;DHT22;4925;52.588;13.370;2024-01-27T13:06:40;7.80;99.90
9772;DHT22;4925;52.588;13.370;2024-01-27T13:09:08;7.70;99.90
9772;DHT22;4925;52.588;13.370;2024-01-27T13:11:40;7.60;99.90
9772;DHT22;4925;52.588;13.370;2024-01-27T13:14:17;7.50;99.90
9772;DHT22;4925;52.588;13.370;2024-01-27T13:16:46;7.60;99.90
9772;DHT22;4925;52.588;13.370;2024-01-27T13:19:11;7.60;99.90
9772;DHT22;4925;52.588;13.370;2024-01-27T13:21:39;7.70;99.90
9772;DHT22;4925;52.588;13.370;2024-01-27T13:24:06;7.80;99.90
9772;DHT22;4925;52.588;13.370;2024-01-27T13:26:35;7.90;99.90
9772;DHT22;4925;52.588;13.370;2024-01-27T13:29:06;8.10;99.90
9772;DHT22;4925;52.588;13.370;2024-01-27T13:31:32;8.10;99.90
9772;DHT22;4925;52.588;13.370;2024-01-27T13:33:58;8.20;99.90
9772;DHT22;4925;52.588;13.370;2024-01-27T13:36:25;8.10;99.90
9772;DHT22;4925;52.588;13.370;2024-01-27T13:38:52;8.30;99.90
9772;DHT22;4925;52.588;13.370;2024-01-27T13:41:19;8.30;99.90
9772;DHT22;4925;52.588;13.370;2024-01-27T13:43:46;8.30;99.90
9772;DHT22;4925;52.588;13.370;2024-01-27T13:46:11;8.30;99.90
9772;DHT22;4925;52.588;13.370;2024-01-27T13:48:38;8.10;99.90
9772;DHT22;4925;52.588;13.370;2024-01-27T13:51:05;8.30;99.90
9772;DHT22;4925;52.588;13.370;2024-01-27T13:53:30;8.60;99.90
9772;DHT22;4925;52.588;13.370;2024-01-27T13:55:56;8.60;99.90
9772;DHT22;4925;52.588;13.370;2024-01-27T13:58:22;8.80;99.90
9772;DHT22;4925;52.588;13.370;2024-01-27T14:00:48;9.00;99.90
9772;DHT22;4925;52.588;13.370;2024-01-27T14:03:14;8.90;99.90
9772;DHT22;4925;52.588;13.370;2024-01-27T14:05:39;8.80;99.90
9772;DHT22;4925;52.588;13.370;2024-01-27T14:08:07;8.70;99.90
9772;DHT22;4925;52.588;13.370;2024-01-27T14:10:33;8.70;99.90
9772;DHT22;4925;52.588;13.370;2024-01-27T14:13:00;8.50;99.90
9772;DHT22;4925;52.588;13.370;2024-01-27T14:15:28;8.40;99.90
9772;DHT22;4925;52.588;13.370;2024-01-27T14:17:55;8.40;99.90
9772;DHT22;4925;52.588;13.370;2024-01-27T14:20:21;8.50;99.90
9772;DHT22;4925;52.588;13.370;2024-01-27T14:22:47;8.20;99.90
9772;DHT22;4925;52.588;13.370;2024-01-27T14:25:12;8.00;99.90
9772;DHT22;4925;52.588;13.370;2024-01-27T14:27:38;8.00;99.90
9772;DHT22;4925;52.588;13.370;2024-01-27T14:30:04;8.00;99.90
9772;DHT22;4925;52.588;13.370;2024-01-27T14:32:30;8.10;99.90
9772;DHT22;4925;52.588;13.370;2024-01-27T14:34:56;8.00;99.90
9772;DHT22;4925;52.588;13.370;2024-01-27T14:37:22;8.10;99.90
9772;DHT22;4925;52.588;13.370;2024-01-27T14:39:48;8.10;99.90
9772;DHT22;4925;52.588;13.370;2024-01-27T14:42:14;8.10;99.90
9772;DHT22;4925;52.588;13.370;2024-01-27T14:44:40;8.10;99.90
9772;DHT22;4925;52.588;13.370;2024-01-27T14:47:08;8.10;99.90
9772;DHT22;4925;52.588;13.370;2024-01-27T14:49:35;8.20;99.90
9772;DHT22;4925;52.588;13.370;2024-01-27T14:52:04;8.20;99.90
9772;DHT22;4925;52.588;13.370;2024-01-27T14:54:29;8.40;99.90
9772;DHT22;4925;52.588;13.370;2024-01-27T14:56:55;8.30;99.90
9772;DHT22;4925;52.588;13.370;2024-01-27T14:59:21;8.30;99.90
9772;DHT22;4925;52.588;13.370;2024-01-27T15:01:46;8.30;99.90
9772;DHT22;4925;52.588;13.370;2024-01-27T15:04:13;8.40;99.90
9772;DHT22;4925;52.588;13.370;2024-01-27T15:06:40;8.50;99.90
9772;DHT22;4925;52.588;13.370;2024-01-27T15:09:05;8.50;99.90
9772;DHT22;4925;52.588;13.370;2024-01-27T15:11:32;8.60;99.90
9772;DHT22;4925;52.588;13.370;2024-01-27T15:13:58;8.70;99.90
9772;DHT22;4925;52.588;13.370;2024-01-27T15:16:24;8.70;99.90
9772;DHT22;4925;52.588;13.370;2024-01-27T15:18:52;8.60;99.90
9772;DHT22;4925;52.588;13.370;2024-01-27T15:21:17;8.80;99.90
9772;DHT22;4925;52.588;13.370;2024-01-27T15:23:43;8.80;99.90
9772;DHT22;4925;52.588;13.370;2024-01-27T15:26:10;8.70;99.90
9772;DHT22;4925;52.588;13.370;2024-01-27T15:28:36;8.60;99.90
9772;DHT22;4925;52.588;13.370;2024-01-27T15:31:01;8.40;99.90
9772;DHT22;4925;52.588;13.370;2024-01-27T15:33:28;8.20;99.90
9772;DHT22;4925;52.588;13.370;2024-01-27T15:35:54;8.10;99.90
9772;DHT22;4925;52.588;13.370;2024-01-27T15:38:20;8.10;99.90
9772;DHT22;4925;52.588;13.370;2024-01-27T15:40:46;8.00;99.90
9772;DHT22;4925;52.588;13.370;2024-01-27T15:43:12;8.00;99.90
9772;DHT22;4925;52.588;13.370;2024-01-27T15:45:37;7.90;99.90
9772;DHT22;4925;52.588;13.370;2024-01-27T15:48:03;7.90;99.90
9772;DHT22;4925;52.588;13.370;2024-01-27T15:50:29;7.80;99.90
9772;DHT22;4925;52.588;13.370;2024-01-27T15:52:58;7.80;99.90
9772;DHT22;4925;52.588;13.370;2024-01-27T15:55:24;7.70;99.90
9772;DHT22;4925;52.588;13.370;2024-01-27T15:57:51;7.60;99.90
9772;DHT22;4925;52.588;13.370;2024-01-27T16:00:17;7.50;99.90
9772;DHT22;4925;52.588;13.370;2024-01-27T16:02:42;7.50;99.90